Tokuyama, Japan
Current Conditions -  °F | °C
As of 10:55 PM on Wednesday 26 Nov 2014 (Local Time) from RJOI Reporting Station
Scattered Clouds Scattered Clouds  
Wind Chill: 51°   Ceiling: Unl
Heat Index: 51°   Visibility: 6mi
Dew Point: 46°   Wind: 6mph
Humidity: 83%   Direction: 280°W
Pressure: 30.09"   Gusts: NA
Location:  34.05°N, 131.8°E
Report Text: RJOI 261355Z 28005KT 9999 FEW025 SCT040 11/08 A3009 RMK SLP189 T01060078
Loading
Personal Weather Stations






























Interactive Weather Map New forecast layout! Learn more

10-Day Weather Forecast

Advertisements
Track Severe Weather on mobile